Blackshear, Georgia
Current Conditions -  °F | °C
As of 4:35 AM on Saturday 20 Dec 2014 (Local Time) from KAYS Reporting Station
Light Rain Light Rain  
Wind Chill: 53°   Ceiling: 9500
Heat Index: 53°   Visibility: 10mi
Dew Point: 52°   Wind: 5mph
Humidity: 96%   Direction: 80°E
Pressure: 30.1"   Gusts: NA
Location:  31.31°N, 82.24°W
Report Text: KAYS 200935Z AUTO 08004KT 10SM -RA SCT050 SCT070 OVC095 12/11 A3010 RMK AO2 T01180112
Loading
Personal Weather Stations






























Interactive Weather Map New forecast layout! Learn more

10-Day Weather Forecast

Advertisements
Track Severe Weather on mobile